Time;durP1;ratioP1;P1;durP2;ratioP2;P2;SDS_P1;SDS_P2;PMS_P1;PMS_P2;Temp;Humidity;BMP_temperature;BMP_pressure;BME280_temperature;BME280_humidity;BME280_pressure;Samples;Min_cycle;Max_cycle;Signal;HPM_P1;HPM_P2
2021/12/07 00:01:49;;;;;;;30.58;17.67;;;2.60;99.90;;;;;;5055753;28;20463;-74
2021/12/07 00:04:15;;;;;;;32.90;18.45;;;2.60;99.90;;;;;;5055877;28;20037;-73
2021/12/07 00:06:42;;;;;;;28.95;17.63;;;2.60;99.90;;;;;;5055700;28;20041;-74
2021/12/07 00:09:10;;;;;;;33.25;18.25;;;2.60;99.90;;;;;;5055415;28;20049;-74
2021/12/07 00:11:36;;;;;;;28.75;17.73;;;2.50;99.90;;;;;;5056327;28;20041;-74
2021/12/07 00:14:11;;;;;;;30.13;17.92;;;2.50;99.90;;;;;;5055364;28;20040;-75
2021/12/07 00:16:37;;;;;;;30.60;18.10;;;2.50;99.90;;;;;;5055401;28;20067;-74
2021/12/07 00:19:03;;;;;;;28.27;17.30;;;2.40;99.90;;;;;;5055201;28;20467;-74
2021/12/07 00:21:29;;;;;;;32.30;18.30;;;2.40;99.90;;;;;;5054804;28;20052;-73
2021/12/07 00:23:55;;;;;;;31.33;17.73;;;2.40;99.90;;;;;;5055721;28;20041;-73
2021/12/07 00:26:21;;;;;;;37.00;18.85;;;2.30;99.90;;;;;;5055593;28;20044;-74
2021/12/07 00:28:49;;;;;;;33.55;18.67;;;2.30;99.90;;;;;;5055203;28;20128;-74
2021/12/07 00:31:27;;;;;;;32.00;18.45;;;2.20;99.90;;;;;;5038647;28;20128;-75
2021/12/07 00:34:08;;;;;;;33.47;18.25;;;2.20;99.90;;;;;;5038332;28;20391;-73
2021/12/07 00:36:37;;;;;;;33.83;18.25;;;2.20;99.90;;;;;;5055309;28;20048;-73
2021/12/07 00:39:07;;;;;;;30.30;17.73;;;2.10;99.90;;;;;;5054939;28;20040;-75
2021/12/07 00:41:34;;;;;;;31.63;17.92;;;2.10;99.90;;;;;;5054978;28;20075;-73
2021/12/07 00:44:02;;;;;;;33.63;17.67;;;2.00;99.90;;;;;;5054922;28;20116;-74
2021/12/07 00:46:28;;;;;;;30.38;17.45;;;2.00;99.90;;;;;;5054172;28;20554;-74
2021/12/07 00:48:54;;;;;;;36.13;18.92;;;2.00;99.90;;;;;;5054121;28;20098;-73
2021/12/07 00:51:20;;;;;;;34.83;18.83;;;1.90;99.90;;;;;;5054651;28;20502;-73
2021/12/07 00:53:46;;;;;;;33.75;18.17;;;1.90;99.90;;;;;;5054892;28;20037;-75
2021/12/07 00:56:12;;;;;;;35.60;19.13;;;1.90;99.90;;;;;;5054840;28;20041;-73
2021/12/07 00:58:38;;;;;;;28.70;17.63;;;1.80;99.90;;;;;;5054497;28;20040;-73
2021/12/07 01:01:10;;;;;;;30.48;19.05;;;1.80;99.90;;;;;;5054522;28;20040;-74
2021/12/07 01:03:36;;;;;;;30.00;17.63;;;1.80;99.90;;;;;;5054405;28;20036;-75
2021/12/07 01:06:19;;;;;;;39.40;19.48;;;1.80;99.90;;;;;;5054355;28;20071;-74
2021/12/07 01:24:59;;;;;;;30.90;17.70;;;1.60;99.90;;;;;;5054286;28;20041;-75
2021/12/07 01:27:25;;;;;;;35.30;19.75;;;1.50;99.90;;;;;;5054346;28;20055;-73
2021/12/07 01:30:17;;;;;;;42.22;20.73;;;1.50;99.90;;;;;;5054138;28;20040;-73
2021/12/07 01:35:44;;;;;;;34.63;19.13;;;1.50;99.90;;;;;;5053519;28;20052;-75
2021/12/07 01:38:33;;;;;;;30.67;17.80;;;1.50;99.90;;;;;;5037214;28;20480;-75
2021/12/07 02:01:47;;;;;;;32.90;18.25;;;1.30;99.90;;;;;;5053305;28;20037;-74
2021/12/07 02:04:13;;;;;;;30.00;17.83;;;1.30;99.90;;;;;;5054240;28;20047;-75
2021/12/07 02:06:39;;;;;;;35.75;20.10;;;1.30;99.90;;;;;;5053622;28;20380;-74
2021/12/07 02:09:08;;;;;;;34.30;19.48;;;1.30;99.90;;;;;;5053423;28;20045;-75
2021/12/07 02:11:34;;;;;;;37.75;19.20;;;1.30;99.90;;;;;;5053404;28;20048;-76
2021/12/07 02:16:29;;;;;;;31.52;18.95;;;1.30;99.90;;;;;;5053542;28;20045;-75
2021/12/07 02:18:55;;;;;;;40.63;20.15;;;1.20;99.90;;;;;;5052820;28;20037;-77
2021/12/07 02:21:25;;;;;;;31.50;18.55;;;1.20;99.90;;;;;;5053073;28;20047;-74
2021/12/07 02:23:52;;;;;;;36.97;19.20;;;1.20;99.90;;;;;;5053433;28;20049;-74
2021/12/07 02:26:18;;;;;;;36.22;19.10;;;1.20;99.90;;;;;;5052994;28;20045;-74
2021/12/07 02:28:45;;;;;;;37.38;19.50;;;1.20;99.90;;;;;;5052824;28;20107;-75
2021/12/07 02:31:11;;;;;;;37.13;19.33;;;1.20;99.90;;;;;;5053093;28;20045;-75
2021/12/07 02:33:39;;;;;;;34.67;18.65;;;1.30;99.90;;;;;;5052408;28;20041;-74
2021/12/07 02:36:07;;;;;;;33.53;18.95;;;1.30;99.90;;;;;;5036334;28;20041;-75
2021/12/07 02:38:33;;;;;;;36.92;18.98;;;1.20;99.90;;;;;;5052204;28;20398;-76
2021/12/07 02:40:59;;;;;;;36.35;19.08;;;1.30;99.90;;;;;;5035357;28;20072;-76
2021/12/07 02:43:25;;;;;;;32.90;17.45;;;1.30;99.90;;;;;;5052394;28;20424;-77
2021/12/07 02:45:51;;;;;;;32.80;18.33;;;1.30;99.90;;;;;;5053363;28;20045;-76
2021/12/07 02:48:21;;;;;;;34.38;18.73;;;1.30;99.90;;;;;;5053273;28;20140;-76
2021/12/07 02:50:48;;;;;;;31.77;18.60;;;1.30;99.90;;;;;;5052558;28;20045;-75
2021/12/07 02:53:14;;;;;;;39.22;19.30;;;1.30;99.90;;;;;;5052810;28;20090;-77
2021/12/07 02:55:40;;;;;;;33.40;18.38;;;1.30;99.90;;;;;;5035812;28;20057;-76
2021/12/07 02:58:06;;;;;;;33.00;18.85;;;1.30;99.90;;;;;;5051872;28;20110;-75
2021/12/07 03:00:41;;;;;;;37.47;19.13;;;1.40;99.90;;;;;;5052686;28;20509;-75
2021/12/07 03:03:10;;;;;;;33.33;19.20;;;1.30;99.90;;;;;;5032696;28;20480;-75
2021/12/07 03:28:10;;;;;;;40.42;21.65;;;1.40;99.90;;;;;;5052095;28;20079;-76
2021/12/07 03:30:36;;;;;;;41.13;20.65;;;1.30;99.90;;;;;;5051859;28;20043;-74
2021/12/07 03:33:03;;;;;;;38.17;21.17;;;1.30;99.90;;;;;;5034526;28;20475;-73
2021/12/07 03:35:30;;;;;;;43.35;22.27;;;1.40;99.90;;;;;;5035332;28;20044;-76
2021/12/07 03:37:56;;;;;;;42.53;21.92;;;1.40;99.90;;;;;;5036147;28;20387;-75
2021/12/07 03:40:23;;;;;;;42.75;22.52;;;1.40;99.90;;;;;;5052243;28;20040;-75
2021/12/07 03:42:48;;;;;;;44.35;23.55;;;1.40;99.90;;;;;;5052183;28;20044;-74
2021/12/07 03:45:14;;;;;;;42.63;21.42;;;1.40;99.90;;;;;;5051857;28;20062;-76
2021/12/07 03:47:40;;;;;;;41.00;21.83;;;1.40;99.90;;;;;;5035544;28;20044;-74
2021/12/07 03:50:08;;;;;;;38.70;20.98;;;1.40;99.90;;;;;;5051982;28;20124;-75
2021/12/07 03:52:34;;;;;;;48.58;23.30;;;1.40;99.90;;;;;;5052374;28;20136;-74
2021/12/07 03:54:59;;;;;;;39.20;20.83;;;1.40;99.90;;;;;;5035492;28;20124;-75
2021/12/07 03:57:25;;;;;;;42.13;22.08;;;1.40;99.90;;;;;;5052053;28;20463;-75
2021/12/07 03:59:51;;;;;;;37.90;21.60;;;1.40;99.90;;;;;;5051400;28;20087;-74
2021/12/07 04:02:16;;;;;;;39.25;21.40;;;1.40;99.90;;;;;;5035445;28;20076;-76
2021/12/07 04:04:42;;;;;;;45.95;22.67;;;1.40;99.90;;;;;;5035046;28;20098;-74
2021/12/07 04:07:08;;;;;;;39.53;21.75;;;1.50;99.90;;;;;;5051944;28;20049;-75
2021/12/07 04:09:34;;;;;;;41.65;21.58;;;1.50;99.90;;;;;;5052075;28;20095;-77
2021/12/07 04:12:00;;;;;;;39.30;20.88;;;1.40;99.90;;;;;;5051773;28;20098;-74
2021/12/07 04:14:26;;;;;;;39.97;21.00;;;1.40;99.90;;;;;;5052091;28;20044;-73
2021/12/07 04:16:52;;;;;;;42.33;22.23;;;1.40;99.90;;;;;;5051528;28;20448;-76
2021/12/07 04:19:17;;;;;;;36.35;20.63;;;1.40;99.90;;;;;;5051171;28;20487;-75
2021/12/07 04:21:43;;;;;;;41.80;21.40;;;1.40;99.90;;;;;;5053344;28;20037;-76
2021/12/07 04:24:09;;;;;;;43.38;21.17;;;1.40;99.90;;;;;;5055667;28;20037;-77
2021/12/07 04:26:35;;;;;;;44.03;21.35;;;1.40;99.90;;;;;;5038495;28;20040;-76
2021/12/07 04:29:00;;;;;;;39.25;20.85;;;1.40;99.90;;;;;;5054659;28;20506;-75
2021/12/07 04:31:26;;;;;;;37.42;20.10;;;1.30;99.90;;;;;;5054847;28;20040;-75
2021/12/07 04:33:52;;;;;;;41.20;20.92;;;1.40;99.90;;;;;;5037938;28;20045;-76
2021/12/07 04:36:18;;;;;;;40.88;20.52;;;1.30;99.90;;;;;;5038384;28;20127;-75
2021/12/07 04:38:43;;;;;;;37.22;19.58;;;1.40;99.90;;;;;;5054991;28;20577;-76
2021/12/07 04:41:10;;;;;;;44.65;20.35;;;1.30;99.90;;;;;;5055526;28;20037;-75
2021/12/07 04:43:38;;;;;;;41.65;20.08;;;1.30;99.90;;;;;;5055061;28;20036;-76
2021/12/07 04:46:15;;;;;;;35.30;18.98;;;1.30;99.90;;;;;;5055102;28;20163;-75
2021/12/07 04:59:56;;;;;;;37.95;18.85;;;1.40;99.90;;;;;;5054755;28;20501;-75
2021/12/07 05:02:22;;;;;;;35.20;17.85;;;1.40;99.90;;;;;;5038230;28;20045;-73
2021/12/07 05:04:48;;;;;;;37.80;19.05;;;1.40;99.90;;;;;;5054849;28;20041;-75
2021/12/07 05:07:23;;;;;;;39.30;18.50;;;1.40;99.90;;;;;;5054340;28;20445;-75
2021/12/07 05:12:26;;;;;;;41.40;18.73;;;1.40;99.90;;;;;;5054553;28;20049;-73
2021/12/07 05:15:01;;;;;;;36.10;18.40;;;1.40;99.90;;;;;;5038204;28;20045;-74
2021/12/07 05:34:31;;;;;;;38.75;17.45;;;1.40;99.90;;;;;;5039118;28;20506;-74
2021/12/07 05:39:51;;;;;;;33.38;17.17;;;1.40;99.90;;;;;;5054294;28;20103;-74
2021/12/07 05:42:17;;;;;;;37.28;18.23;;;1.40;99.90;;;;;;5054030;28;20044;-76
2021/12/07 05:44:43;;;;;;;38.05;18.23;;;1.40;99.90;;;;;;5053709;28;20036;-75
2021/12/07 05:47:09;;;;;;;36.17;17.48;;;1.40;99.90;;;;;;5053164;28;20040;-75
2021/12/07 05:49:35;;;;;;;35.35;17.30;;;1.40;99.90;;;;;;5053576;28;20040;-76
2021/12/07 05:52:02;;;;;;;38.30;18.00;;;1.40;99.90;;;;;;5053967;28;20167;-75
2021/12/07 05:54:27;;;;;;;33.42;17.45;;;1.40;99.90;;;;;;5053839;28;20048;-74
2021/12/07 05:56:53;;;;;;;36.30;18.05;;;1.40;99.90;;;;;;5053545;28;20040;-75
2021/12/07 05:59:19;;;;;;;38.72;17.02;;;1.40;99.90;;;;;;5036559;28;20033;-75
2021/12/07 06:01:44;;;;;;;40.97;17.20;;;1.40;99.90;;;;;;5053320;28;20140;-75
2021/12/07 06:04:10;;;;;;;33.47;16.80;;;1.40;99.90;;;;;;5054231;28;20048;-75
2021/12/07 06:06:36;;;;;;;38.45;18.60;;;1.40;99.90;;;;;;5053992;28;20041;-75
2021/12/07 06:09:03;;;;;;;34.70;16.48;;;1.40;99.90;;;;;;5053551;28;20047;-77
2021/12/07 06:11:28;;;;;;;35.75;16.95;;;1.40;99.90;;;;;;5053471;28;20040;-76
2021/12/07 06:13:54;;;;;;;32.38;15.80;;;1.40;99.90;;;;;;5053021;28;20047;-77
2021/12/07 06:16:20;;;;;;;42.58;17.50;;;1.40;99.90;;;;;;5053224;28;20037;-75
2021/12/07 06:18:46;;;;;;;32.92;16.10;;;1.40;99.90;;;;;;5051580;28;20114;-75
2021/12/07 06:21:13;;;;;;;33.45;17.00;;;1.40;99.90;;;;;;5053120;28;20051;-75
2021/12/07 06:23:39;;;;;;;41.72;17.25;;;1.40;99.90;;;;;;5036522;28;20489;-75
2021/12/07 06:26:05;;;;;;;31.67;16.35;;;1.40;99.90;;;;;;5053064;28;20124;-75
2021/12/07 06:28:31;;;;;;;37.05;16.77;;;1.40;99.90;;;;;;5053030;28;20049;-76
2021/12/07 06:30:57;;;;;;;44.53;17.70;;;1.40;99.90;;;;;;5052762;28;20102;-77
2021/12/07 06:33:25;;;;;;;40.20;17.08;;;1.40;99.90;;;;;;5036100;28;20140;-75
2021/12/07 06:35:57;;;;;;;39.35;16.88;;;1.40;99.90;;;;;;5053455;28;20052;-77
2021/12/07 06:38:27;;;;;;;31.67;16.10;;;1.40;99.90;;;;;;5052811;28;20045;-75
2021/12/07 06:40:53;;;;;;;39.25;16.40;;;1.40;99.90;;;;;;5052642;28;20041;-75
2021/12/07 06:43:19;;;;;;;34.85;17.55;;;1.40;99.90;;;;;;5035564;28;20045;-74
2021/12/07 06:45:45;;;;;;;37.65;16.83;;;1.40;99.90;;;;;;5036012;28;20105;-76
2021/12/07 06:48:11;;;;;;;36.15;16.90;;;1.40;99.90;;;;;;5053088;28;20190;-76
2021/12/07 06:50:37;;;;;;;39.50;17.63;;;1.40;99.90;;;;;;5048009;28;20111;-75
2021/12/07 06:53:03;;;;;;;34.85;17.63;;;1.40;99.90;;;;;;5052031;28;20428;-75
2021/12/07 06:55:29;;;;;;;35.72;17.60;;;1.40;99.90;;;;;;5052646;28;20047;-76
2021/12/07 06:57:55;;;;;;;37.53;17.55;;;1.40;99.90;;;;;;5052159;28;20041;-75
2021/12/07 07:00:21;;;;;;;36.78;17.15;;;1.40;99.90;;;;;;5053333;28;20510;-75
2021/12/07 07:02:47;;;;;;;37.88;17.40;;;1.40;99.90;;;;;;5052632;28;20501;-75
2021/12/07 07:05:13;;;;;;;35.22;16.67;;;1.40;99.90;;;;;;5036312;28;20045;-75
2021/12/07 07:07:40;;;;;;;36.05;16.85;;;1.40;99.90;;;;;;5052600;28;20049;-75
2021/12/07 07:10:08;;;;;;;36.92;16.85;;;1.40;99.90;;;;;;5052482;28;20052;-76
2021/12/07 07:12:34;;;;;;;34.60;17.85;;;1.30;99.90;;;;;;5052179;28;20082;-77
2021/12/07 07:15:00;;;;;;;37.60;18.55;;;1.30;99.90;;;;;;5052591;28;20040;-76
2021/12/07 07:17:26;;;;;;;44.45;19.45;;;1.30;99.90;;;;;;5052351;28;20043;-76
2021/12/07 07:19:51;;;;;;;35.22;17.45;;;1.30;99.90;;;;;;5035992;28;20128;-76
2021/12/07 07:22:17;;;;;;;34.30;16.55;;;1.30;99.90;;;;;;5052128;28;20037;-75
2021/12/07 07:24:43;;;;;;;37.72;16.17;;;1.30;99.90;;;;;;5052380;28;20037;-76
2021/12/07 07:27:09;;;;;;;39.25;16.98;;;1.30;99.90;;;;;;5052027;28;20083;-75
2021/12/07 07:29:35;;;;;;;35.65;15.75;;;1.20;99.90;;;;;;5052567;28;20045;-76
2021/12/07 07:32:01;;;;;;;39.55;15.80;;;1.20;99.90;;;;;;5052096;28;20126;-76
2021/12/07 07:34:27;;;;;;;41.42;18.00;;;1.20;99.90;;;;;;5051792;28;20483;-76
2021/12/07 07:36:53;;;;;;;34.85;16.85;;;1.30;99.90;;;;;;5052268;28;20041;-75
2021/12/07 07:39:19;;;;;;;37.72;17.10;;;1.30;99.90;;;;;;5068559;28;20537;-76
2021/12/07 07:41:45;;;;;;;39.63;17.50;;;1.30;99.90;;;;;;5034557;28;20041;-76
2021/12/07 07:44:10;;;;;;;36.72;16.48;;;1.30;99.90;;;;;;5051352;28;20041;-76
2021/12/07 07:46:36;;;;;;;36.22;16.63;;;1.30;99.90;;;;;;5068963;28;20080;-75
2021/12/07 07:49:03;;;;;;;40.95;16.38;;;1.30;99.90;;;;;;5068403;28;20044;-74
2021/12/07 07:51:29;;;;;;;38.38;16.25;;;1.30;99.90;;;;;;5052256;28;20475;-76
2021/12/07 07:53:56;;;;;;;40.13;16.45;;;1.40;99.90;;;;;;5052101;28;20037;-76
2021/12/07 07:56:22;;;;;;;37.42;16.70;;;1.40;99.90;;;;;;5052451;28;20045;-77
2021/12/07 07:58:48;;;;;;;37.80;15.98;;;1.40;99.90;;;;;;5019457;28;20184;-76
2021/12/07 08:01:13;;;;;;;35.53;15.73;;;1.40;99.90;;;;;;5036180;28;20041;-75
2021/12/07 08:03:39;;;;;;;48.33;17.20;;;1.40;99.90;;;;;;5035795;28;20045;-76
2021/12/07 08:06:05;;;;;;;35.10;15.77;;;1.50;99.90;;;;;;5036039;28;20052;-75
2021/12/07 08:08:30;;;;;;;35.92;15.35;;;1.50;99.90;;;;;;5052250;28;20044;-76
2021/12/07 08:10:56;;;;;;;32.30;15.23;;;1.50;99.90;;;;;;5054788;28;20037;-75
2021/12/07 08:13:22;;;;;;;37.08;15.27;;;1.50;99.90;;;;;;5039311;28;20052;-76
2021/12/07 08:15:49;;;;;;;39.90;16.42;;;1.50;99.90;;;;;;5039203;28;20132;-75
2021/12/07 08:18:18;;;;;;;34.40;16.20;;;1.50;99.90;;;;;;5055409;28;20128;-77
2021/12/07 08:20:44;;;;;;;33.83;14.00;;;1.50;99.90;;;;;;5055560;28;20068;-76
2021/12/07 08:23:11;;;;;;;30.83;14.40;;;1.50;99.90;;;;;;5055468;28;20037;-76
2021/12/07 08:25:41;;;;;;;32.10;14.20;;;1.50;99.90;;;;;;5055130;28;20044;-75
2021/12/07 08:28:08;;;;;;;39.28;15.23;;;1.40;99.90;;;;;;5055187;28;20116;-76
2021/12/07 08:30:35;;;;;;;35.97;14.32;;;1.50;99.90;;;;;;5038969;28;20071;-74
2021/12/07 08:33:01;;;;;;;33.05;14.82;;;1.50;99.90;;;;;;5055072;28;20048;-74
2021/12/07 08:35:27;;;;;;;35.70;14.70;;;1.50;99.90;;;;;;5055056;28;20127;-76
2021/12/07 08:37:53;;;;;;;35.60;14.40;;;1.50;99.90;;;;;;5054917;28;20121;-75
2021/12/07 08:40:22;;;;;;;39.03;15.07;;;1.50;99.90;;;;;;5054806;28;20041;-75
2021/12/07 08:42:49;;;;;;;34.38;14.43;;;1.50;99.90;;;;;;5055789;28;20041;-76
2021/12/07 08:45:15;;;;;;;35.28;15.55;;;1.60;99.90;;;;;;5038430;28;20083;-75
2021/12/07 08:47:40;;;;;;;32.90;14.85;;;1.60;99.90;;;;;;5054650;28;20041;-76
2021/12/07 08:50:10;;;;;;;39.13;15.85;;;1.60;99.90;;;;;;5055121;28;20045;-75
2021/12/07 08:52:37;;;;;;;39.25;13.98;;;1.60;99.90;;;;;;5054731;28;20124;-75
2021/12/07 09:00:15;;;;;;;31.88;14.38;;;1.60;99.90;;;;;;5054657;28;20448;-75
2021/12/07 09:02:41;;;;;;;39.78;16.35;;;1.70;99.90;;;;;;5054654;28;20466;-76
2021/12/07 09:05:07;;;;;;;38.90;15.32;;;1.70;99.90;;;;;;5054046;28;20128;-74
2021/12/07 09:07:34;;;;;;;38.38;15.88;;;1.70;99.90;;;;;;5054465;28;20049;-77
2021/12/07 09:10:00;;;;;;;41.60;15.60;;;1.80;99.90;;;;;;5054865;28;20048;-75
2021/12/07 09:12:25;;;;;;;34.17;15.48;;;1.80;99.90;;;;;;5054526;28;20126;-75
2021/12/07 09:14:53;;;;;;;38.53;15.70;;;1.80;99.90;;;;;;5038072;28;20051;-76
2021/12/07 09:17:19;;;;;;;43.13;17.08;;;1.80;99.90;;;;;;5053869;28;20049;-75
2021/12/07 09:19:45;;;;;;;43.30;15.60;;;1.90;99.90;;;;;;5054375;28;20037;-75
2021/12/07 09:22:10;;;;;;;43.10;15.63;;;1.90;99.90;;;;;;5054650;28;20433;-75
2021/12/07 09:24:36;;;;;;;43.08;16.05;;;1.90;99.90;;;;;;5054921;28;20071;-76
2021/12/07 09:27:02;;;;;;;39.30;14.95;;;2.00;99.90;;;;;;5053950;28;20369;-73
2021/12/07 09:29:28;;;;;;;42.75;15.43;;;2.00;99.90;;;;;;5054209;28;20040;-74
2021/12/07 09:31:55;;;;;;;39.30;14.65;;;2.00;99.90;;;;;;5054190;28;20135;-74
2021/12/07 09:34:20;;;;;;;46.30;16.13;;;2.10;99.90;;;;;;5053794;28;20045;-74
2021/12/07 09:36:46;;;;;;;36.20;13.68;;;2.10;99.90;;;;;;5054205;28;20044;-74
2021/12/07 09:39:15;;;;;;;36.47;13.80;;;2.20;99.90;;;;;;5054414;28;20372;-74
2021/12/07 09:41:41;;;;;;;37.90;15.75;;;2.20;99.90;;;;;;5054062;28;20127;-74
2021/12/07 09:44:08;;;;;;;37.95;14.50;;;2.30;99.90;;;;;;5054048;28;20047;-74
2021/12/07 09:46:35;;;;;;;37.55;14.18;;;2.30;99.90;;;;;;5053181;28;20421;-75
2021/12/07 09:49:03;;;;;;;38.90;14.15;;;2.40;99.90;;;;;;5053560;28;20400;-73
2021/12/07 09:51:29;;;;;;;33.53;13.25;;;2.40;99.90;;;;;;5054624;28;20049;-74
2021/12/07 09:53:56;;;;;;;34.70;13.63;;;2.50;99.90;;;;;;5053943;28;20048;-74
2021/12/07 09:56:23;;;;;;;32.30;13.40;;;2.60;99.90;;;;;;5053876;28;20052;-73
2021/12/07 09:58:50;;;;;;;32.03;12.38;;;2.70;99.90;;;;;;5053003;28;20115;-74
2021/12/07 10:01:17;;;;;;;34.55;12.68;;;2.80;99.90;;;;;;5053322;28;20041;-74
2021/12/07 10:03:43;;;;;;;30.52;12.45;;;2.80;99.90;;;;;;5053318;28;20053;-74
2021/12/07 10:06:09;;;;;;;38.28;12.07;;;2.90;99.90;;;;;;5054266;28;20094;-75
2021/12/07 10:08:35;;;;;;;27.85;11.27;;;2.90;99.90;;;;;;5053485;28;20397;-74
2021/12/07 10:11:03;;;;;;;25.88;11.23;;;3.00;99.90;;;;;;5053493;28;20048;-75
2021/12/07 10:13:30;;;;;;;27.25;10.93;;;3.00;99.90;;;;;;5053420;28;20048;-75
2021/12/07 10:15:59;;;;;;;26.20;10.98;;;3.10;99.90;;;;;;5053308;28;20039;-74
2021/12/07 10:18:28;;;;;;;21.20;9.77;;;3.20;99.90;;;;;;5052607;28;20049;-74
2021/12/07 10:20:55;;;;;;;26.33;9.73;;;3.30;99.90;;;;;;5053053;28;20056;-73
2021/12/07 10:23:20;;;;;;;26.90;10.27;;;3.50;99.90;;;;;;5053137;28;20041;-75
2021/12/07 10:25:52;;;;;;;23.85;9.57;;;3.80;99.90;;;;;;5053100;28;20074;-75
2021/12/07 10:28:36;;;;;;;25.00;9.95;;;4.20;99.90;;;;;;5052698;28;20133;-73
2021/12/07 10:31:14;;;;;;;24.75;9.75;;;4.50;99.90;;;;;;5052936;28;20055;-73
2021/12/07 10:33:44;;;;;;;24.05;9.65;;;4.60;99.90;;;;;;5052864;28;20097;-74
2021/12/07 10:36:19;;;;;;;24.67;9.57;;;4.60;99.90;;;;;;5052406;28;20044;-73
2021/12/07 10:39:02;;;;;;;22.15;9.65;;;4.70;99.90;;;;;;5052695;28;20174;-74
2021/12/07 10:41:32;;;;;;;20.17;9.40;;;4.80;99.90;;;;;;5050877;28;20045;-72
2021/12/07 10:44:01;;;;;;;23.77;9.20;;;4.70;99.90;;;;;;5053352;28;20041;-73
2021/12/07 10:46:51;;;;;;;19.73;8.60;;;4.60;99.90;;;;;;5052591;28;20044;-73
2021/12/07 10:49:25;;;;;;;21.42;9.20;;;4.40;99.90;;;;;;5052306;28;20040;-73
2021/12/07 10:52:08;;;;;;;21.67;8.05;;;4.70;99.90;;;;;;5053008;28;20037;-73
2021/12/07 10:55:03;;;;;;;20.63;8.98;;;4.80;99.90;;;;;;5052803;28;20115;-74
2021/12/07 10:57:38;;;;;;;22.90;8.27;;;4.70;99.90;;;;;;5050084;28;20471;-74
2021/12/07 11:00:15;;;;;;;23.67;9.35;;;4.60;99.90;;;;;;5052812;28;20032;-74
2021/12/07 11:02:44;;;;;;;24.83;8.65;;;4.40;99.90;;;;;;5052466;28;20544;-73
2021/12/07 11:05:16;;;;;;;23.98;8.75;;;4.50;99.90;;;;;;5052691;28;20037;-73
2021/12/07 11:07:41;;;;;;;23.67;8.52;;;4.40;99.90;;;;;;5035747;28;20045;-73
2021/12/07 11:10:19;;;;;;;20.98;8.13;;;4.50;99.90;;;;;;5051834;28;20064;-72
2021/12/07 11:12:57;;;;;;;27.92;8.73;;;4.80;99.90;;;;;;5035831;28;20506;-73
2021/12/07 11:15:26;;;;;;;23.10;7.90;;;4.90;99.90;;;;;;5052782;28;20052;-72
2021/12/07 11:18:03;;;;;;;21.85;7.72;;;4.90;99.90;;;;;;5052222;28;20075;-73
2021/12/07 11:20:31;;;;;;;20.45;7.40;;;5.00;99.90;;;;;;5052924;28;20084;-73
2021/12/07 11:23:12;;;;;;;19.02;7.35;;;5.20;99.90;;;;;;5052425;28;20468;-73
2021/12/07 11:31:37;;;;;;;20.40;7.63;;;6.30;99.90;;;;;;5055966;28;20083;-74
2021/12/07 11:34:23;;;;;;;20.05;7.32;;;6.60;99.90;;;;;;5056545;28;20054;-73
2021/12/07 11:36:53;;;;;;;18.85;7.15;;;6.50;99.90;;;;;;5056255;28;20037;-73
2021/12/07 11:39:35;;;;;;;18.45;6.40;;;6.70;99.90;;;;;;5055700;28;20103;-73
2021/12/07 11:42:04;;;;;;;29.13;7.28;;;6.90;99.90;;;;;;5056312;28;20568;-73
2021/12/07 11:44:32;;;;;;;21.25;7.28;;;7.00;99.90;;;;;;5056222;28;20049;-72
2021/12/07 11:47:00;;;;;;;18.63;7.78;;;7.20;99.90;;;;;;5055023;28;20479;-73
2021/12/07 11:49:29;;;;;;;18.77;7.20;;;7.20;99.90;;;;;;5056298;28;20048;-73
2021/12/07 11:51:57;;;;;;;17.98;6.38;;;7.30;99.90;;;;;;5055773;28;20044;-72
2021/12/07 11:54:28;;;;;;;16.25;5.70;;;7.00;99.90;;;;;;5056386;28;20135;-72
2021/12/07 11:56:54;;;;;;;17.77;6.20;;;6.80;99.90;;;;;;5056152;28;20045;-72
2021/12/07 11:59:20;;;;;;;23.40;6.60;;;6.70;99.90;;;;;;5055504;28;20044;-72
2021/12/07 12:01:48;;;;;;;18.35;5.75;;;6.80;99.90;;;;;;5055757;28;20126;-73
2021/12/07 12:04:16;;;;;;;18.60;5.95;;;6.90;99.90;;;;;;5055852;28;20124;-73
2021/12/07 12:06:44;;;;;;;24.17;6.10;;;7.10;99.90;;;;;;5039295;28;20041;-72
2021/12/07 12:09:10;;;;;;;19.17;6.40;;;7.30;99.90;;;;;;5055685;28;20033;-72
2021/12/07 12:11:54;;;;;;;19.33;6.88;;;7.40;99.90;;;;;;5039302;28;20099;-72
2021/12/07 12:14:35;;;;;;;17.48;6.10;;;7.50;99.90;;;;;;5054919;28;20047;-75
2021/12/07 12:17:09;;;;;;;16.25;5.75;;;7.40;99.90;;;;;;5054171;28;20044;-74
2021/12/07 12:20:12;;;;;;;15.25;5.40;;;7.40;99.90;;;;;;5054418;28;20037;-73
2021/12/07 12:22:56;;;;;;;20.85;6.95;;;7.30;99.90;;;;;;5054417;28;20094;-74
2021/12/07 12:25:25;;;;;;;24.13;6.05;;;7.20;99.90;;;;;;5054704;28;20050;-73
2021/12/07 12:27:52;;;;;;;15.15;6.13;;;7.20;99.90;;;;;;5054631;28;20049;-74
2021/12/07 12:30:34;;;;;;;18.00;5.75;;;6.90;99.90;;;;;;5054553;28;20037;-74
2021/12/07 12:33:06;;;;;;;14.85;5.72;;;6.70;99.90;;;;;;5054026;28;20061;-73
2021/12/07 12:35:40;;;;;;;16.92;6.03;;;6.60;99.90;;;;;;5054674;28;20071;-73
2021/12/07 12:38:18;;;;;;;24.42;6.22;;;6.60;99.90;;;;;;5054154;28;20049;-74
2021/12/07 12:41:07;;;;;;;17.50;5.97;;;6.70;99.90;;;;;;5054814;28;20120;-74
2021/12/07 12:43:42;;;;;;;21.88;6.80;;;6.90;99.90;;;;;;5053356;28;20045;-73
2021/12/07 12:46:19;;;;;;;17.73;5.85;;;7.00;99.90;;;;;;5054320;28;20124;-74
2021/12/07 12:48:48;;;;;;;18.10;6.57;;;7.00;99.90;;;;;;5053992;28;20044;-73
2021/12/07 12:51:14;;;;;;;17.02;5.82;;;7.00;99.90;;;;;;5054212;28;20084;-74
2021/12/07 12:53:42;;;;;;;17.38;6.47;;;7.00;99.90;;;;;;5054253;28;20128;-74
2021/12/07 12:56:11;;;;;;;20.38;6.38;;;7.00;99.90;;;;;;5054219;28;20049;-73
2021/12/07 12:58:44;;;;;;;19.85;7.70;;;7.00;99.90;;;;;;5037365;28;20037;-74
2021/12/07 13:01:14;;;;;;;23.42;7.80;;;7.00;99.90;;;;;;5053962;28;20037;-74
2021/12/07 13:03:43;;;;;;;17.55;8.10;;;7.00;99.90;;;;;;5053611;28;20043;-74
2021/12/07 13:06:13;;;;;;;13.25;6.10;;;6.80;99.90;;;;;;5054054;28;20071;-73
2021/12/07 13:09:06;;;;;;;19.63;8.70;;;6.60;99.90;;;;;;5053961;28;20041;-74
2021/12/07 13:11:43;;;;;;;14.73;6.47;;;6.50;99.90;;;;;;5053783;28;20063;-73
2021/12/07 13:14:21;;;;;;;18.48;6.72;;;6.30;99.90;;;;;;5036376;28;20041;-72
2021/12/07 13:16:52;;;;;;;19.05;7.20;;;6.10;99.90;;;;;;5053737;28;20045;-73
2021/12/07 13:19:19;;;;;;;19.23;8.35;;;6.00;99.90;;;;;;5053452;28;20540;-72
2021/12/07 13:21:46;;;;;;;23.65;7.80;;;6.00;99.90;;;;;;5053593;28;20045;-73
2021/12/07 13:24:20;;;;;;;20.27;8.75;;;5.90;99.90;;;;;;5053079;28;20037;-74
2021/12/07 13:26:52;;;;;;;28.02;9.57;;;5.80;99.90;;;;;;5053435;28;20526;-73
2021/12/07 13:29:22;;;;;;;20.85;8.57;;;5.70;99.90;;;;;;5053053;28;20462;-74
2021/12/07 13:31:51;;;;;;;25.55;9.90;;;5.60;99.90;;;;;;5052937;28;20452;-74
2021/12/07 13:34:26;;;;;;;24.77;9.43;;;5.60;99.90;;;;;;5052925;28;20037;-73
2021/12/07 13:37:10;;;;;;;22.17;9.40;;;5.60;99.90;;;;;;5052963;28;20041;-74
2021/12/07 13:39:49;;;;;;;22.38;10.02;;;5.50;99.90;;;;;;5053010;28;20426;-73
2021/12/07 13:42:18;;;;;;;22.05;10.02;;;5.50;99.90;;;;;;5053329;28;20130;-73
2021/12/07 13:44:53;;;;;;;22.13;9.43;;;5.40;99.90;;;;;;5052687;28;20053;-74
2021/12/07 13:47:26;;;;;;;24.63;11.20;;;5.40;99.90;;;;;;5053173;28;20101;-72
2021/12/07 13:49:59;;;;;;;26.75;12.52;;;5.30;99.90;;;;;;5027992;28;20221;-73
2021/12/07 13:52:35;;;;;;;22.73;11.40;;;5.30;99.90;;;;;;5041122;28;20048;-74
2021/12/07 13:55:06;;;;;;;25.63;10.55;;;5.20;99.90;;;;;;5052661;28;20364;-73
2021/12/07 13:57:36;;;;;;;29.63;11.25;;;5.20;99.90;;;;;;5051379;28;20480;-73
2021/12/07 14:00:32;;;;;;;29.95;11.07;;;5.20;99.90;;;;;;5034518;28;20045;-74
2021/12/07 14:03:03;;;;;;;29.90;10.60;;;5.10;99.90;;;;;;5020823;28;20441;-73
2021/12/07 14:05:32;;;;;;;30.08;10.77;;;5.10;99.90;;;;;;5053590;28;20045;-74
2021/12/07 14:08:00;;;;;;;24.23;10.93;;;5.10;99.90;;;;;;5053325;28;20040;-72
2021/12/07 14:10:27;;;;;;;24.75;11.65;;;5.10;99.90;;;;;;5037321;28;20056;-73
2021/12/07 14:12:55;;;;;;;24.33;11.52;;;5.00;99.90;;;;;;5053099;28;20482;-74
2021/12/07 14:15:25;;;;;;;29.98;12.10;;;5.00;99.90;;;;;;5053193;28;20044;-73
2021/12/07 14:17:58;;;;;;;31.55;12.15;;;4.90;99.90;;;;;;5053353;28;20045;-73
2021/12/07 14:20:28;;;;;;;25.50;11.77;;;4.90;99.90;;;;;;5053034;28;20053;-73
2021/12/07 14:22:54;;;;;;;24.13;11.27;;;4.80;99.90;;;;;;5053557;28;20049;-73
2021/12/07 14:25:20;;;;;;;30.88;12.40;;;4.80;99.90;;;;;;5053596;28;20033;-73
2021/12/07 14:27:47;;;;;;;27.15;12.13;;;4.80;99.90;;;;;;5053121;28;20045;-73
2021/12/07 14:30:15;;;;;;;26.45;12.15;;;4.80;99.90;;;;;;5053056;28;20361;-73
2021/12/07 14:32:42;;;;;;;28.83;11.18;;;4.70;99.90;;;;;;5052741;28;20435;-73
2021/12/07 14:35:08;;;;;;;24.00;12.02;;;4.70;99.90;;;;;;5052731;28;20487;-73
2021/12/07 14:37:34;;;;;;;23.38;11.80;;;4.60;99.90;;;;;;5053100;28;20037;-73